Time;durP1;ratioP1;P1;durP2;ratioP2;P2;SDS_P1;SDS_P2;PMS_P1;PMS_P2;Temp;Humidity;BMP_temperature;BMP_pressure;BME280_temperature;BME280_humidity;BME280_pressure;Samples;Min_cycle;Max_cycle;Signal;HPM_P1;HPM_P2
2023/09/27 00:00:15;;;;;;;15.70;8.77;;;16.20;81.10;;;;;;9165375;19;20027;-73
2023/09/27 00:03:21;;;;;;;18.20;8.80;;;16.20;81.30;;;;;;9163923;19;20058;-73
2023/09/27 00:06:32;;;;;;;13.75;9.23;;;16.10;80.00;;;;;;9164735;19;20029;-70
2023/09/27 00:09:37;;;;;;;15.23;8.60;;;16.00;74.60;;;;;;9164989;19;20465;-75
2023/09/27 00:12:45;;;;;;;16.35;8.98;;;16.00;74.80;;;;;;9162618;19;20021;-74
2023/09/27 00:15:50;;;;;;;14.88;8.73;;;16.00;75.70;;;;;;9162709;19;20480;-75
2023/09/27 00:18:58;;;;;;;16.27;9.20;;;16.00;75.90;;;;;;9163938;19;20483;-73
2023/09/27 00:22:06;;;;;;;15.32;9.32;;;16.00;78.10;;;;;;9164729;19;20488;-73
2023/09/27 00:25:14;;;;;;;16.02;9.32;;;16.00;80.10;;;;;;9162353;19;20010;-73
2023/09/27 00:28:20;;;;;;;13.50;8.77;;;16.00;80.10;;;;;;9162971;19;20065;-74
2023/09/27 00:31:27;;;;;;;12.77;8.15;;;15.90;85.00;;;;;;9164257;19;20022;-74
2023/09/27 00:34:34;;;;;;;17.67;8.68;;;15.80;74.80;;;;;;9160176;19;20023;-73
2023/09/27 00:37:44;;;;;;;15.63;9.00;;;15.80;74.80;;;;;;9162169;19;20593;-70
2023/09/27 00:40:51;;;;;;;16.42;8.73;;;15.80;74.80;;;;;;9162822;19;20018;-73
2023/09/27 00:43:58;;;;;;;15.02;9.13;;;15.70;74.80;;;;;;9163234;19;20354;-69
2023/09/27 00:47:04;;;;;;;18.45;9.00;;;15.70;74.80;;;;;;9161882;19;20034;-72
2023/09/27 00:50:12;;;;;;;15.48;8.90;;;15.70;74.90;;;;;;9161824;19;20018;-70
2023/09/27 00:53:21;;;;;;;16.92;8.95;;;15.70;75.00;;;;;;9156610;19;20086;-69
2023/09/27 00:56:29;;;;;;;17.10;9.75;;;15.60;75.00;;;;;;9161168;19;20763;-73
2023/09/27 00:59:35;;;;;;;14.93;9.98;;;15.70;75.00;;;;;;9163566;19;20023;-69
2023/09/27 01:02:43;;;;;;;16.77;9.63;;;15.60;75.00;;;;;;9162883;19;20011;-73
2023/09/27 01:05:51;;;;;;;19.52;9.25;;;15.60;75.00;;;;;;9159438;19;20014;-73
2023/09/27 01:09:01;;;;;;;14.80;9.63;;;15.50;75.10;;;;;;9162610;19;20015;-69
2023/09/27 01:12:07;;;;;;;17.25;9.70;;;15.50;75.10;;;;;;9162662;19;20346;-72
2023/09/27 01:15:15;;;;;;;15.52;9.32;;;15.50;75.10;;;;;;9161283;19;20019;-69
2023/09/27 01:18:20;;;;;;;17.50;9.48;;;15.50;75.20;;;;;;9162562;19;20014;-73
2023/09/27 01:21:28;;;;;;;13.10;9.43;;;15.50;75.20;;;;;;9161279;19;20821;-70
2023/09/27 01:24:39;;;;;;;16.63;9.75;;;15.40;75.20;;;;;;9158846;19;20015;-71
2023/09/27 01:27:47;;;;;;;18.63;10.48;;;15.40;75.90;;;;;;9159948;19;20030;-73
2023/09/27 01:30:52;;;;;;;13.13;9.55;;;15.40;75.30;;;;;;9161741;19;20014;-73
2023/09/27 01:33:59;;;;;;;15.93;10.50;;;15.30;75.30;;;;;;9160482;19;20019;-74
2023/09/27 01:37:07;;;;;;;17.42;10.70;;;15.30;75.40;;;;;;9163016;19;20030;-74
2023/09/27 01:40:17;;;;;;;19.58;10.57;;;15.30;75.40;;;;;;9160208;19;20022;-70
2023/09/27 01:43:23;;;;;;;19.63;10.52;;;15.30;75.50;;;;;;9161610;19;20480;-74
2023/09/27 01:46:31;;;;;;;14.48;10.27;;;15.30;75.60;;;;;;9167273;19;20014;-68
2023/09/27 01:49:36;;;;;;;15.85;10.35;;;15.20;75.60;;;;;;9168977;19;20024;-74
2023/09/27 01:52:44;;;;;;;17.20;10.38;;;15.20;75.60;;;;;;9168250;19;20022;-69
2023/09/27 01:55:53;;;;;;;15.93;10.75;;;15.20;75.70;;;;;;9164577;19;20018;-72
2023/09/27 01:59:01;;;;;;;19.90;11.35;;;15.20;75.80;;;;;;9171018;19;20368;-71
2023/09/27 02:02:06;;;;;;;16.23;10.63;;;15.20;75.90;;;;;;9171660;19;20472;-74
2023/09/27 02:05:13;;;;;;;17.83;11.07;;;15.20;75.80;;;;;;9167916;19;20015;-72
2023/09/27 02:08:19;;;;;;;18.45;11.05;;;15.20;76.00;;;;;;9168991;19;20015;-74
2023/09/27 02:11:29;;;;;;;24.42;11.13;;;15.20;75.90;;;;;;9167367;19;20026;-70
2023/09/27 02:14:34;;;;;;;23.48;10.60;;;15.10;76.00;;;;;;9168629;19;20029;-72
2023/09/27 02:17:42;;;;;;;16.20;10.60;;;15.20;76.40;;;;;;9169807;19;20019;-72
2023/09/27 02:20:49;;;;;;;12.98;9.25;;;15.30;84.30;;;;;;9168232;19;20541;-73
2023/09/27 02:23:56;;;;;;;13.35;9.15;;;15.20;77.70;;;;;;9169399;19;20017;-70
2023/09/27 02:27:04;;;;;;;12.82;9.43;;;15.10;83.10;;;;;;9168910;19;20022;-72
2023/09/27 02:30:14;;;;;;;14.48;9.30;;;15.10;76.00;;;;;;9169592;19;20021;-73
2023/09/27 02:33:21;;;;;;;16.05;9.45;;;15.00;76.00;;;;;;9167686;19;20018;-69
2023/09/27 02:36:30;;;;;;;12.75;9.55;;;15.00;76.00;;;;;;9169413;19;20025;-69
2023/09/27 02:39:35;;;;;;;15.95;9.18;;;15.00;76.10;;;;;;9170037;19;20627;-72
2023/09/27 02:42:46;;;;;;;17.42;9.65;;;15.00;76.10;;;;;;9168290;19;20476;-71
2023/09/27 02:45:52;;;;;;;16.15;9.35;;;15.00;76.20;;;;;;9165528;19;20011;-74
2023/09/27 02:48:59;;;;;;;14.13;9.85;;;15.00;76.10;;;;;;9168090;19;20034;-71
2023/09/27 02:52:06;;;;;;;13.82;10.15;;;14.90;76.10;;;;;;9168700;19;20026;-72
2023/09/27 02:55:14;;;;;;;18.00;11.05;;;14.90;76.10;;;;;;9164506;19;20043;-70
2023/09/27 02:58:22;;;;;;;18.77;11.05;;;14.90;76.10;;;;;;9165816;19;20103;-72
2023/09/27 03:01:30;;;;;;;18.23;11.07;;;14.90;76.20;;;;;;9165342;19;20033;-70
2023/09/27 03:04:35;;;;;;;18.25;10.48;;;14.90;76.20;;;;;;9165144;19;20082;-71
2023/09/27 03:07:44;;;;;;;17.27;11.48;;;14.90;76.20;;;;;;9167534;19;20258;-67
2023/09/27 03:10:50;;;;;;;18.38;12.45;;;14.90;76.30;;;;;;9166017;19;20617;-72
2023/09/27 03:14:01;;;;;;;18.10;12.27;;;14.90;76.30;;;;;;9166206;19;20018;-73
2023/09/27 03:17:06;;;;;;;17.13;10.80;;;14.80;76.30;;;;;;9165933;19;20943;-74
2023/09/27 03:20:17;;;;;;;22.42;11.95;;;14.80;76.30;;;;;;9167770;19;20014;-70
2023/09/27 03:23:23;;;;;;;17.73;11.32;;;14.80;76.40;;;;;;9165715;19;20018;-69
2023/09/27 03:26:30;;;;;;;18.63;11.05;;;14.80;76.40;;;;;;9164892;19;20025;-71
2023/09/27 03:29:39;;;;;;;20.15;11.27;;;14.80;76.40;;;;;;9165535;19;20103;-72
2023/09/27 03:32:47;;;;;;;19.98;10.52;;;14.80;76.50;;;;;;9167859;19;20021;-72
2023/09/27 03:35:53;;;;;;;17.55;10.65;;;14.70;76.50;;;;;;9165048;19;20025;-70
2023/09/27 03:39:01;;;;;;;19.33;10.40;;;14.70;76.50;;;;;;9164669;19;20038;-73
2023/09/27 03:42:07;;;;;;;18.20;11.07;;;14.70;76.50;;;;;;9163926;19;20480;-73
2023/09/27 03:45:18;;;;;;;16.25;10.32;;;14.70;76.50;;;;;;9165834;19;20011;-73
2023/09/27 03:48:26;;;;;;;16.23;9.70;;;14.70;76.60;;;;;;9164350;19;20468;-73
2023/09/27 03:51:33;;;;;;;15.68;10.75;;;14.70;76.50;;;;;;9164409;19;20022;-70
2023/09/27 03:54:39;;;;;;;15.50;11.05;;;14.70;76.50;;;;;;9158917;19;20093;-69
2023/09/27 03:57:46;;;;;;;18.63;11.52;;;14.60;76.50;;;;;;9165398;19;20015;-72
2023/09/27 04:00:54;;;;;;;17.20;10.95;;;14.60;76.50;;;;;;9163461;19;20022;-71
2023/09/27 04:04:04;;;;;;;16.67;10.10;;;14.70;76.70;;;;;;9164403;19;20483;-69
2023/09/27 04:07:09;;;;;;;14.65;10.30;;;14.60;76.60;;;;;;9161090;19;20027;-74
2023/09/27 04:10:19;;;;;;;16.90;9.98;;;14.60;76.60;;;;;;9164159;19;20025;-73
2023/09/27 04:13:24;;;;;;;18.92;10.88;;;14.50;76.60;;;;;;9163350;19;20014;-69
2023/09/27 04:16:34;;;;;;;17.02;11.27;;;14.60;76.70;;;;;;9165053;19;20014;-67
2023/09/27 04:19:39;;;;;;;19.23;11.18;;;14.50;76.70;;;;;;9165040;19;20384;-75
2023/09/27 04:22:48;;;;;;;21.33;10.63;;;14.50;76.70;;;;;;9163988;19;20028;-72
2023/09/27 04:25:54;;;;;;;17.17;11.68;;;14.50;76.70;;;;;;9161620;19;20018;-73
2023/09/27 04:29:01;;;;;;;16.00;10.93;;;14.50;76.80;;;;;;9164243;19;20775;-68
2023/09/27 04:32:10;;;;;;;20.08;11.15;;;14.50;76.80;;;;;;9164790;19;20352;-69
2023/09/27 04:35:18;;;;;;;17.65;11.25;;;14.40;76.80;;;;;;9162621;19;20105;-68
2023/09/27 04:38:23;;;;;;;19.52;12.68;;;14.40;76.80;;;;;;9163019;19;20022;-73
2023/09/27 04:41:31;;;;;;;18.02;11.40;;;14.40;76.90;;;;;;9165180;19;20101;-68
2023/09/27 04:44:36;;;;;;;22.77;11.70;;;14.40;77.00;;;;;;9164035;19;20024;-71
2023/09/27 04:47:46;;;;;;;20.85;12.23;;;14.40;77.00;;;;;;9162101;19;20477;-68
2023/09/27 04:50:53;;;;;;;18.65;13.07;;;14.30;77.10;;;;;;9161309;19;20357;-73
2023/09/27 04:54:00;;;;;;;21.70;11.85;;;14.30;77.00;;;;;;9157675;19;20315;-71
2023/09/27 04:57:06;;;;;;;20.55;12.18;;;14.30;77.10;;;;;;9160204;19;20022;-70
2023/09/27 05:00:18;;;;;;;24.75;14.27;;;14.30;77.10;;;;;;9163163;19;20025;-68
2023/09/27 05:03:28;;;;;;;25.33;14.73;;;14.30;77.20;;;;;;9162713;19;20520;-76
2023/09/27 05:06:36;;;;;;;21.00;13.50;;;14.30;77.20;;;;;;9159759;19;20011;-75
2023/09/27 05:09:41;;;;;;;19.35;12.20;;;14.20;77.10;;;;;;9160603;19;20015;-73
2023/09/27 05:12:49;;;;;;;19.65;12.20;;;14.30;77.20;;;;;;9164436;19;20032;-76
2023/09/27 05:15:54;;;;;;;17.38;12.43;;;14.20;77.20;;;;;;9163162;19;20571;-71
2023/09/27 05:19:04;;;;;;;20.27;14.65;;;14.20;77.20;;;;;;9160695;19;20128;-75
2023/09/27 05:22:10;;;;;;;17.90;12.57;;;14.20;77.30;;;;;;9168239;19;20018;-68
2023/09/27 05:25:17;;;;;;;23.38;12.93;;;14.20;77.20;;;;;;9169709;19;20026;-71
2023/09/27 05:28:22;;;;;;;20.10;13.13;;;14.20;77.30;;;;;;9165586;19;20431;-73
2023/09/27 05:31:30;;;;;;;16.73;11.77;;;14.20;77.30;;;;;;9172011;19;20385;-70
2023/09/27 05:34:37;;;;;;;17.85;11.82;;;14.20;77.30;;;;;;9171315;19;20014;-74
2023/09/27 05:37:45;;;;;;;22.73;13.20;;;14.20;77.40;;;;;;9170318;19;20022;-73
2023/09/27 05:40:50;;;;;;;19.75;13.02;;;14.10;77.30;;;;;;9169389;19;20048;-73
2023/09/27 05:43:57;;;;;;;26.20;12.82;;;14.20;77.50;;;;;;9171216;19;20010;-71
2023/09/27 05:47:03;;;;;;;22.08;13.65;;;14.10;77.60;;;;;;9167418;19;20060;-74
2023/09/27 05:50:14;;;;;;;20.25;13.75;;;14.20;77.80;;;;;;9168754;19;20014;-74
2023/09/27 05:53:19;;;;;;;24.33;14.43;;;14.20;77.90;;;;;;9166242;19;20018;-72
2023/09/27 05:56:27;;;;;;;24.70;14.48;;;14.10;78.10;;;;;;9171340;19;20017;-74
2023/09/27 05:59:33;;;;;;;25.02;15.63;;;13.30;77.20;;;;;;9170101;19;20441;-74
2023/09/27 06:02:40;;;;;;;24.77;16.08;;;14.10;77.60;;;;;;9167922;19;20006;-68
2023/09/27 06:05:48;;;;;;;25.10;17.35;;;14.20;77.90;;;;;;9170746;19;20014;-69
2023/09/27 06:08:56;;;;;;;24.00;15.82;;;14.20;78.00;;;;;;9168010;19;20023;-67
2023/09/27 06:12:01;;;;;;;26.98;17.65;;;14.20;78.50;;;;;;9170621;19;20080;-73
2023/09/27 06:15:09;;;;;;;27.52;17.70;;;14.20;78.00;;;;;;9170523;19;20018;-69
2023/09/27 06:18:15;;;;;;;30.20;17.55;;;14.20;78.00;;;;;;9168123;19;20022;-69
2023/09/27 06:21:25;;;;;;;30.27;18.67;;;14.30;78.20;;;;;;9169846;19;20022;-67
2023/09/27 06:24:30;;;;;;;32.25;17.52;;;14.30;78.30;;;;;;9169877;19;20021;-71
2023/09/27 06:27:39;;;;;;;34.17;18.13;;;14.30;78.20;;;;;;9166513;19;20010;-71
2023/09/27 06:30:45;;;;;;;32.25;19.08;;;14.40;78.40;;;;;;9169262;19;20014;-68
2023/09/27 06:33:53;;;;;;;33.97;19.45;;;14.40;78.40;;;;;;9168929;19;20019;-71
2023/09/27 06:37:01;;;;;;;31.30;19.40;;;14.50;78.50;;;;;;9170257;19;20060;-68
2023/09/27 06:40:11;;;;;;;29.08;19.55;;;14.50;78.60;;;;;;9167261;19;20025;-68
2023/09/27 06:43:19;;;;;;;34.15;20.83;;;14.60;78.70;;;;;;9167487;19;20341;-68
2023/09/27 06:46:29;;;;;;;36.45;20.73;;;14.60;78.60;;;;;;9163726;19;20017;-69
2023/09/27 06:49:52;;;;;;;38.15;20.98;;;14.70;78.80;;;;;;9165257;19;20030;-71
2023/09/27 06:53:02;;;;;;;39.97;22.63;;;14.80;78.80;;;;;;9167834;19;20025;-73
2023/09/27 06:56:26;;;;;;;34.50;21.13;;;14.80;79.00;;;;;;9166237;19;20014;-69
2023/09/27 06:59:34;;;;;;;31.05;20.63;;;14.90;79.00;;;;;;9166950;19;20033;-67
2023/09/27 07:02:42;;;;;;;35.33;21.60;;;15.00;79.00;;;;;;9167033;19;20021;-66
2023/09/27 07:05:50;;;;;;;36.72;21.98;;;15.00;79.10;;;;;;9167251;19;20021;-66
2023/09/27 07:08:57;;;;;;;34.25;21.45;;;15.10;79.30;;;;;;9162857;19;20511;-67
2023/09/27 07:12:06;;;;;;;34.08;21.52;;;15.50;83.20;;;;;;9167107;19;20029;-68
2023/09/27 07:15:13;;;;;;;33.78;21.00;;;15.30;79.50;;;;;;9166791;19;20021;-67
2023/09/27 07:18:22;;;;;;;33.58;21.98;;;15.40;79.40;;;;;;9166533;19;20022;-71
2023/09/27 07:21:29;;;;;;;31.83;20.63;;;15.50;81.50;;;;;;9167017;19;20882;-70
2023/09/27 07:24:39;;;;;;;35.78;21.60;;;15.50;79.50;;;;;;9163927;19;20476;-67
2023/09/27 07:27:46;;;;;;;37.05;21.90;;;15.60;80.90;;;;;;9164453;19;20026;-69
2023/09/27 07:30:53;;;;;;;33.03;21.10;;;15.70;79.60;;;;;;9165775;19;20741;-66
2023/09/27 07:33:58;;;;;;;32.75;21.65;;;15.70;79.60;;;;;;9164682;19;20018;-66
2023/09/27 07:37:08;;;;;;;39.05;23.42;;;15.80;79.70;;;;;;9167011;19;20030;-66
2023/09/27 07:40:17;;;;;;;35.50;23.13;;;15.90;79.80;;;;;;9167064;19;20867;-67
2023/09/27 07:43:24;;;;;;;37.40;23.05;;;16.00;80.40;;;;;;9162875;19;20019;-68
2023/09/27 07:46:30;;;;;;;37.35;22.05;;;16.10;80.00;;;;;;9165000;19;20023;-68
2023/09/27 07:49:37;;;;;;;41.05;24.27;;;16.20;80.20;;;;;;9162354;19;20018;-68
2023/09/27 07:52:42;;;;;;;33.85;22.65;;;16.30;80.10;;;;;;9166149;19;20374;-67
2023/09/27 07:55:53;;;;;;;32.95;22.23;;;16.40;80.20;;;;;;9161972;19;20575;-68
2023/09/27 07:58:58;;;;;;;33.22;22.02;;;16.50;80.30;;;;;;9164894;19;20010;-68
2023/09/27 08:02:08;;;;;;;42.00;21.83;;;16.60;80.20;;;;;;9165045;19;20385;-66
2023/09/27 08:05:16;;;;;;;33.10;21.90;;;16.70;81.40;;;;;;9163589;19;20820;-70
2023/09/27 08:08:24;;;;;;;37.28;21.38;;;16.80;80.20;;;;;;9164135;19;20026;-69
2023/09/27 08:11:32;;;;;;;33.63;21.17;;;17.00;80.30;;;;;;9163357;19;20495;-70
2023/09/27 08:14:40;;;;;;;31.17;20.85;;;17.10;80.40;;;;;;9163254;19;20022;-69
2023/09/27 08:17:46;;;;;;;36.05;21.00;;;17.20;80.40;;;;;;9164383;19;20029;-69
2023/09/27 08:20:54;;;;;;;32.20;19.90;;;17.30;80.20;;;;;;9162317;19;20022;-68
2023/09/27 08:24:00;;;;;;;29.75;19.52;;;17.40;80.20;;;;;;9162455;19;20018;-68
2023/09/27 08:27:10;;;;;;;38.08;20.60;;;17.40;80.10;;;;;;9164274;19;20488;-70
2023/09/27 08:30:15;;;;;;;39.38;21.42;;;17.60;80.30;;;;;;9163735;19;21189;-68
2023/09/27 08:33:23;;;;;;;31.92;19.58;;;17.60;80.60;;;;;;9161766;19;20017;-70
2023/09/27 08:36:28;;;;;;;34.58;20.40;;;17.80;80.30;;;;;;9164117;19;20021;-68
2023/09/27 08:39:35;;;;;;;35.45;19.60;;;17.90;80.60;;;;;;9162362;19;20226;-68
2023/09/27 08:42:45;;;;;;;30.33;19.02;;;18.00;80.10;;;;;;9162098;19;20472;-67
2023/09/27 08:45:54;;;;;;;30.40;19.30;;;18.10;80.10;;;;;;9162433;19;20425;-69
2023/09/27 08:49:00;;;;;;;27.67;18.73;;;18.20;80.00;;;;;;9161644;19;20018;-71
2023/09/27 08:52:09;;;;;;;29.05;18.90;;;18.40;79.90;;;;;;9162778;19;20018;-68
2023/09/27 08:55:15;;;;;;;28.83;18.50;;;18.50;79.90;;;;;;9161086;19;20475;-68
2023/09/27 08:58:27;;;;;;;33.15;19.67;;;18.60;79.70;;;;;;9171691;19;20029;-71
2023/09/27 09:01:35;;;;;;;28.27;18.63;;;18.80;79.80;;;;;;9170116;19;20022;-72
2023/09/27 09:04:43;;;;;;;33.10;17.95;;;18.90;79.70;;;;;;9170918;19;20014;-72
2023/09/27 09:07:50;;;;;;;26.98;17.55;;;19.00;79.60;;;;;;9170127;19;20135;-69
2023/09/27 09:10:57;;;;;;;28.15;17.88;;;19.20;79.60;;;;;;9169781;19;20373;-70
2023/09/27 09:14:06;;;;;;;26.45;16.83;;;19.30;79.50;;;;;;9172438;19;20099;-71
2023/09/27 09:17:17;;;;;;;26.58;16.20;;;19.50;79.40;;;;;;9170305;19;20010;-72
2023/09/27 09:20:31;;;;;;;26.95;16.60;;;19.60;80.10;;;;;;9171465;19;20034;-67
2023/09/27 09:23:46;;;;;;;24.27;15.25;;;19.80;80.10;;;;;;9171728;19;20032;-67
2023/09/27 09:27:07;;;;;;;24.75;16.02;;;20.00;79.60;;;;;;9170035;19;20506;-68
2023/09/27 09:30:17;;;;;;;21.80;15.65;;;20.10;79.40;;;;;;9169388;19;20017;-68
2023/09/27 09:33:24;;;;;;;21.85;14.43;;;20.30;79.50;;;;;;9171981;19;20778;-68
2023/09/27 09:36:33;;;;;;;26.30;16.08;;;20.50;82.50;;;;;;9169647;19;20026;-66
2023/09/27 09:39:38;;;;;;;26.70;16.95;;;20.60;83.20;;;;;;9169024;19;20050;-69
2023/09/27 09:42:46;;;;;;;23.67;15.38;;;20.80;79.90;;;;;;9171535;19;21554;-68
2023/09/27 09:45:54;;;;;;;29.83;14.52;;;21.00;80.50;;;;;;9170415;19;20024;-67
2023/09/27 09:49:01;;;;;;;20.20;13.40;;;21.10;81.10;;;;;;9167796;19;20030;-68
2023/09/27 09:52:08;;;;;;;27.40;14.35;;;21.20;77.90;;;;;;9169116;19;20468;-66
2023/09/27 09:55:19;;;;;;;23.65;13.27;;;21.40;77.80;;;;;;9165695;19;20019;-68
2023/09/27 09:58:49;;;;;;;24.13;14.30;;;21.50;77.60;;;;;;9171191;19;20021;-68
2023/09/27 10:02:02;;;;;;;23.92;14.15;;;21.70;77.40;;;;;;9168124;19;20018;-68
2023/09/27 10:05:09;;;;;;;22.65;14.27;;;21.80;77.00;;;;;;9168721;19;20015;-67
2023/09/27 10:08:18;;;;;;;27.08;14.70;;;21.90;77.00;;;;;;9168849;19;20665;-67
2023/09/27 10:11:25;;;;;;;27.58;14.70;;;22.00;76.80;;;;;;9168353;19;20488;-67
2023/09/27 10:14:34;;;;;;;25.83;14.25;;;22.10;76.90;;;;;;9170095;19;20022;-68
2023/09/27 10:17:42;;;;;;;20.98;12.70;;;22.20;77.00;;;;;;9170665;19;20049;-67
2023/09/27 10:21:04;;;;;;;24.65;11.93;;;22.30;77.10;;;;;;9169069;19;20011;-67
2023/09/27 10:24:10;;;;;;;22.85;12.38;;;22.30;75.90;;;;;;9169124;19;20028;-70
2023/09/27 10:27:18;;;;;;;18.67;12.25;;;22.40;75.90;;;;;;9168591;19;20022;-68
2023/09/27 10:30:24;;;;;;;21.05;12.52;;;22.50;75.70;;;;;;9166096;19;20030;-68
2023/09/27 10:33:38;;;;;;;24.35;13.48;;;22.50;75.50;;;;;;9168434;19;20029;-67
2023/09/27 10:36:47;;;;;;;23.35;13.75;;;22.60;75.30;;;;;;9163769;19;20861;-67
2023/09/27 10:40:21;;;;;;;23.23;13.73;;;22.70;75.10;;;;;;9166794;19;20014;-68
2023/09/27 10:43:42;;;;;;;20.25;12.95;;;22.70;74.90;;;;;;9167738;19;20263;-70
2023/09/27 10:46:51;;;;;;;20.83;13.02;;;22.80;74.70;;;;;;9166803;19;20026;-67
2023/09/27 10:49:59;;;;;;;18.42;12.25;;;22.80;74.80;;;;;;9165465;19;20027;-67
2023/09/27 10:53:08;;;;;;;20.83;11.80;;;22.90;74.80;;;;;;9167904;19;20030;-65
2023/09/27 10:56:14;;;;;;;16.42;11.27;;;22.80;74.70;;;;;;9162173;19;20014;-71
2023/09/27 10:59:26;;;;;;;19.05;11.20;;;22.90;74.70;;;;;;9167561;19;20021;-70
2023/09/27 11:02:32;;;;;;;18.70;11.55;;;22.90;74.40;;;;;;9164426;19;20011;-69
2023/09/27 11:05:42;;;;;;;16.83;9.70;;;23.00;74.50;;;;;;9164552;19;20488;-68
2023/09/27 11:08:48;;;;;;;17.00;9.48;;;23.00;74.30;;;;;;9164424;19;20372;-69
2023/09/27 11:11:57;;;;;;;19.08;10.20;;;23.10;74.60;;;;;;9165132;19;20347;-70
2023/09/27 11:15:02;;;;;;;18.92;10.23;;;23.10;74.40;;;;;;9167908;19;20033;-69
2023/09/27 11:18:10;;;;;;;17.35;8.75;;;23.10;74.40;;;;;;9163323;19;20014;-67
2023/09/27 11:21:19;;;;;;;18.20;8.75;;;23.20;74.20;;;;;;9163618;19;20018;-68
2023/09/27 11:24:26;;;;;;;12.13;8.60;;;23.30;74.50;;;;;;9162842;19;20011;-68
2023/09/27 11:27:32;;;;;;;13.27;8.00;;;23.30;73.90;;;;;;9160720;19;20623;-66
2023/09/27 11:30:40;;;;;;;16.90;7.15;;;23.30;73.80;;;;;;9159934;19;20025;-67
2023/09/27 11:33:45;;;;;;;11.13;6.40;;;23.40;73.50;;;;;;9161178;19;20873;-66
2023/09/27 11:36:57;;;;;;;12.07;6.30;;;23.50;73.30;;;;;;9164928;19;20019;-67
2023/09/27 11:40:03;;;;;;;12.32;7.40;;;23.60;73.00;;;;;;9165992;19;20101;-66
2023/09/27 11:43:12;;;;;;;14.95;6.40;;;23.60;72.90;;;;;;9166532;19;20014;-66
2023/09/27 11:46:29;;;;;;;14.73;6.97;;;23.70;72.80;;;;;;9164011;19;20018;-65
2023/09/27 11:49:37;;;;;;;10.80;5.95;;;23.70;72.50;;;;;;9165362;19;20014;-66
2023/09/27 11:52:46;;;;;;;13.77;6.47;;;23.70;72.60;;;;;;9164023;19;20009;-65
2023/09/27 11:55:54;;;;;;;17.30;7.28;;;23.80;72.30;;;;;;9161290;19;20021;-67
2023/09/27 11:58:59;;;;;;;9.07;6.15;;;23.80;72.30;;;;;;9165331;19;20819;-66
2023/09/27 12:02:08;;;;;;;12.25;5.80;;;23.80;72.20;;;;;;9163756;19;20014;-66
2023/09/27 12:05:28;;;;;;;10.60;5.80;;;23.80;72.00;;;;;;9163858;19;20016;-68
2023/09/27 12:08:39;;;;;;;9.40;5.95;;;23.80;72.00;;;;;;9163522;19;20413;-66
2023/09/27 12:11:44;;;;;;;14.02;5.75;;;23.80;71.90;;;;;;9161845;19;20304;-65
2023/09/27 12:14:51;;;;;;;13.27;6.00;;;23.80;71.90;;;;;;9165055;19;20021;-68
2023/09/27 12:17:59;;;;;;;12.18;4.97;;;23.90;72.40;;;;;;9165196;19;20794;-65
2023/09/27 12:21:06;;;;;;;7.18;4.50;;;23.80;71.60;;;;;;9163061;19;20018;-67
2023/09/27 12:24:14;;;;;;;7.43;4.70;;;23.80;71.50;;;;;;9164657;19;20015;-67
2023/09/27 12:27:22;;;;;;;10.35;4.43;;;23.90;71.40;;;;;;9163104;19;20014;-68
2023/09/27 12:30:28;;;;;;;13.90;5.70;;;23.90;71.40;;;;;;9160663;19;20097;-67
2023/09/27 12:33:35;;;;;;;14.73;5.30;;;23.80;71.30;;;;;;9165128;19;20022;-67
2023/09/27 12:36:41;;;;;;;12.93;4.95;;;23.80;71.30;;;;;;9162820;19;20014;-67
2023/09/27 12:39:51;;;;;;;14.45;5.60;;;23.80;71.30;;;;;;9162927;19;20021;-68
2023/09/27 12:42:56;;;;;;;8.05;4.80;;;23.90;71.30;;;;;;9163862;19;20026;-66
2023/09/27 12:46:05;;;;;;;11.68;5.55;;;23.90;71.30;;;;;;9163101;19;20022;-69
2023/09/27 12:49:10;;;;;;;10.98;5.00;;;23.90;71.20;;;;;;9164573;19;20022;-66
2023/09/27 12:52:17;;;;;;;13.55;4.93;;;23.90;71.20;;;;;;9162019;19;20011;-67
2023/09/27 12:55:26;;;;;;;8.32;4.95;;;24.00;71.10;;;;;;9157651;19;20558;-67
2023/09/27 12:58:34;;;;;;;13.35;4.88;;;24.10;71.00;;;;;;9162151;19;20347;-68
2023/09/27 13:01:40;;;;;;;11.55;4.72;;;24.10;71.10;;;;;;9161851;19;20550;-66
2023/09/27 13:04:47;;;;;;;12.40;4.68;;;24.10;71.00;;;;;;9162147;19;20365;-68
2023/09/27 13:07:52;;;;;;;9.52;5.47;;;24.20;71.10;;;;;;9164005;19;20563;-66
2023/09/27 13:11:03;;;;;;;14.23;4.93;;;24.30;71.40;;;;;;9159465;19;20011;-66
2023/09/27 13:14:08;;;;;;;9.40;4.90;;;24.30;72.00;;;;;;9162569;19;20026;-66
2023/09/27 13:17:16;;;;;;;12.30;5.47;;;24.30;72.70;;;;;;9161190;19;20018;-67
2023/09/27 13:20:22;;;;;;;12.38;5.35;;;24.30;71.50;;;;;;9159839;19;20251;-67
2023/09/27 13:23:30;;;;;;;16.13;6.80;;;24.40;70.30;;;;;;9161279;19;20014;-68
2023/09/27 13:26:39;;;;;;;8.18;5.60;;;24.40;70.30;;;;;;9160900;19;20442;-67
2023/09/27 13:29:46;;;;;;;14.20;5.97;;;24.50;70.10;;;;;;9161855;19;20026;-68
2023/09/27 13:32:51;;;;;;;8.15;5.43;;;24.50;70.10;;;;;;9156885;19;20017;-68
2023/09/27 13:36:00;;;;;;;11.32;6.70;;;24.60;70.20;;;;;;9160111;19;20019;-67
2023/09/27 13:39:13;;;;;;;9.02;5.82;;;24.60;70.00;;;;;;9161195;19;20030;-68
2023/09/27 13:42:23;;;;;;;11.77;6.20;;;24.70;70.40;;;;;;9164027;19;20027;-70
2023/09/27 13:45:29;;;;;;;12.45;5.28;;;24.70;70.50;;;;;;9170488;19;20023;-67
2023/09/27 13:48:37;;;;;;;9.45;5.78;;;24.60;70.50;;;;;;9169772;19;20025;-66
2023/09/27 13:51:43;;;;;;;14.20;5.57;;;24.70;71.50;;;;;;9167650;19;20462;-67
2023/09/27 13:54:50;;;;;;;11.52;4.93;;;24.70;68.90;;;;;;9165402;19;20722;-68
2023/09/27 13:57:58;;;;;;;9.70;5.47;;;24.70;68.80;;;;;;9168320;19;20014;-67
2023/09/27 14:01:06;;;;;;;8.35;5.35;;;24.70;68.60;;;;;;9168760;19;20023;-68
2023/09/27 14:04:11;;;;;;;8.02;5.10;;;24.80;68.60;;;;;;9170955;19;20022;-66
2023/09/27 14:07:19;;;;;;;9.43;4.82;;;24.80;68.40;;;;;;9169164;19;20030;-66
2023/09/27 14:10:24;;;;;;;8.60;5.50;;;24.80;69.00;;;;;;9170960;19;20482;-67
2023/09/27 14:13:34;;;;;;;13.32;6.38;;;24.80;68.20;;;;;;9168069;19;20361;-67
2023/09/27 14:16:40;;;;;;;12.50;6.50;;;24.80;68.10;;;;;;9170033;19;20415;-67
2023/09/27 14:19:48;;;;;;;12.18;6.57;;;24.80;68.10;;;;;;9168336;19;20025;-67
2023/09/27 14:22:56;;;;;;;13.43;6.28;;;24.90;68.10;;;;;;9167686;19;20006;-66
2023/09/27 14:26:03;;;;;;;11.23;6.45;;;24.80;67.90;;;;;;9170270;19;20018;-67
2023/09/27 14:29:11;;;;;;;14.23;5.93;;;24.80;68.10;;;;;;9168858;19;20068;-67
2023/09/27 14:32:35;;;;;;;15.60;5.50;;;24.80;68.40;;;;;;9167024;19;20821;-67
2023/09/27 14:35:44;;;;;;;11.15;5.35;;;24.90;67.80;;;;;;9168923;19;20398;-66
2023/09/27 14:38:58;;;;;;;7.78;4.43;;;24.80;67.80;;;;;;9169230;19;20549;-66
2023/09/27 14:42:04;;;;;;;12.32;5.47;;;24.80;68.00;;;;;;9168396;19;20059;-66
2023/09/27 14:45:14;;;;;;;7.55;5.18;;;24.80;68.00;;;;;;9166715;19;20022;-67
2023/09/27 14:48:35;;;;;;;8.63;6.20;;;24.70;67.70;;;;;;9167821;19;20045;-66
2023/09/27 14:51:43;;;;;;;15.38;7.05;;;24.80;67.90;;;;;;9164231;19;20740;-66
2023/09/27 14:54:49;;;;;;;14.13;6.82;;;24.70;67.90;;;;;;9162535;19;20082;-68
2023/09/27 14:57:58;;;;;;;12.85;6.53;;;24.70;68.20;;;;;;9166259;19;20487;-68
2023/09/27 15:01:07;;;;;;;13.85;7.20;;;24.60;68.10;;;;;;9166206;19;20039;-68
2023/09/27 15:04:16;;;;;;;11.77;6.53;;;24.60;68.10;;;;;;9165437;19;20018;-67
2023/09/27 15:07:22;;;;;;;11.20;6.25;;;24.60;68.10;;;;;;9166043;19;20041;-68
2023/09/27 15:10:30;;;;;;;11.55;6.13;;;24.60;68.50;;;;;;9168051;19;20018;-66
2023/09/27 15:13:36;;;;;;;11.88;6.53;;;24.60;68.30;;;;;;9165786;19;20033;-66
2023/09/27 15:16:45;;;;;;;12.75;6.60;;;24.50;68.20;;;;;;9164662;19;20021;-68
2023/09/27 15:19:52;;;;;;;15.43;6.15;;;24.50;68.40;;;;;;9164572;19;20018;-67
2023/09/27 15:22:59;;;;;;;11.13;6.50;;;24.40;68.40;;;;;;9166662;19;20015;-67
2023/09/27 15:26:06;;;;;;;12.68;6.93;;;24.40;68.60;;;;;;9166217;19;20032;-66
2023/09/27 15:29:13;;;;;;;14.80;6.78;;;24.30;68.80;;;;;;9163574;19;20029;-67
2023/09/27 15:32:23;;;;;;;16.98;7.20;;;24.30;69.20;;;;;;9161707;19;20014;-66
2023/09/27 15:35:28;;;;;;;14.38;7.18;;;23.90;73.10;;;;;;9162803;19;20014;-67
2023/09/27 15:38:36;;;;;;;11.00;6.78;;;24.10;71.10;;;;;;9162663;19;20373;-68
2023/09/27 15:41:41;;;;;;;14.73;7.82;;;24.00;72.00;;;;;;9166474;19;20022;-68
2023/09/27 15:44:49;;;;;;;12.52;6.70;;;24.00;70.50;;;;;;9165332;19;20484;-68
2023/09/27 15:47:57;;;;;;;15.73;7.72;;;23.80;70.10;;;;;;9164212;19;20022;-68
2023/09/27 15:51:07;;;;;;;13.88;7.22;;;23.90;70.50;;;;;;9165981;19;20022;-69
2023/09/27 15:54:13;;;;;;;11.10;6.70;;;23.70;71.00;;;;;;9157990;19;20014;-67
2023/09/27 15:57:25;;;;;;;14.00;8.07;;;23.70;72.00;;;;;;9163346;19;20122;-68